createdAt,value
2019-05-02T10:32:57.288Z,52.02
2019-05-02T10:37:52.220Z,51.96
2019-05-02T10:42:47.910Z,50.78
2019-05-02T10:47:43.695Z,50.98
2019-05-02T10:52:39.530Z,49.25
2019-05-02T10:57:35.286Z,49.22
2019-05-02T11:02:39.567Z,46.30
2019-05-02T11:07:37.882Z,49.43
2019-05-02T11:13:04.916Z,47.93
2019-05-02T11:18:02.304Z,44.57
2019-05-02T11:23:03.288Z,46.72
2019-05-02T11:28:05.468Z,46.75
2019-05-02T11:32:57.665Z,44.48
2019-05-02T11:37:53.444Z,44.71
2019-05-02T11:42:49.246Z,40.64
2019-05-02T11:47:45.005Z,42.59
2019-05-02T11:52:42.406Z,41.35
2019-05-02T11:57:38.421Z,38.75
2019-05-02T12:02:58.154Z,42.91
2019-05-02T12:07:53.752Z,41.89
2019-05-02T12:12:54.128Z,39.54
2019-05-02T12:17:52.391Z,40.65
2019-05-02T12:22:48.185Z,38.48
2019-05-02T12:27:43.971Z,40.14
2019-05-02T12:32:39.851Z,40.51
2019-05-02T12:37:35.707Z,38.52
2019-05-02T12:42:33.045Z,38.31
2019-05-02T12:47:42.727Z,38.72
2019-05-02T12:52:38.379Z,38.41
2019-05-02T12:57:34.148Z,38.84
2019-05-02T13:02:36.835Z,37.10
2019-05-02T13:07:32.572Z,38.79
2019-05-02T13:12:32.307Z,40.81
2019-05-02T13:17:29.474Z,37.09
2019-05-02T13:22:42.891Z,36.34
2019-05-02T13:27:44.413Z,38.65
2019-05-02T13:32:42.663Z,38.78
2019-05-02T13:37:38.835Z,40.87
2019-05-02T13:42:34.705Z,40.94
2019-05-02T13:47:32.406Z,43.61
2019-05-02T13:52:28.359Z,48.77
2019-05-02T13:57:24.529Z,51.61
2019-05-02T14:02:43.406Z,55.46
2019-05-02T14:07:42.862Z,65.77
2019-05-02T14:12:47.016Z,72.11
2019-05-02T14:17:52.345Z,74.32
2019-05-02T14:22:48.009Z,78.20
2019-05-02T14:27:47.036Z,78.95
2019-05-02T14:32:42.494Z,79.81
2019-05-02T14:37:38.529Z,77.56
2019-05-02T14:42:34.442Z,75.80
2019-05-02T14:47:32.533Z,74.56
2019-05-02T14:52:27.947Z,71.13
2019-05-02T14:57:27.058Z,69.61
2019-05-02T15:02:51.759Z,67.54
2019-05-02T15:07:47.288Z,67.29
2019-05-02T15:12:43.137Z,67.00
2019-05-02T15:17:39.011Z,64.98
2019-05-02T15:22:37.478Z,65.14
2019-05-02T15:27:41.065Z,66.83
2019-05-02T15:32:42.836Z,65.12
2019-05-02T15:37:36.537Z,64.07
2019-05-02T15:42:32.455Z,66.07
2019-05-02T15:47:28.416Z,66.73
2019-05-02T15:52:28.683Z,65.62
2019-05-02T15:57:25.052Z,65.30
2019-05-02T16:02:26.458Z,64.18
2019-05-02T16:07:22.498Z,65.95
2019-05-02T16:12:18.622Z,66.50
2019-05-02T16:17:17.686Z,67.49
2019-05-02T16:22:17.034Z,70.10
2019-05-02T16:27:16.402Z,69.02
2019-05-02T16:32:30.872Z,65.94
2019-05-02T16:37:27.801Z,64.49
2019-05-02T16:42:23.609Z,66.93
2019-05-02T16:47:21.970Z,65.05
2019-05-02T16:52:17.992Z,65.34
2019-05-02T16:57:34.843Z,67.10
2019-05-02T17:02:29.651Z,67.17
2019-05-02T17:07:46.171Z,68.70
2019-05-02T17:12:42.856Z,67.80
2019-05-02T17:17:39.781Z,70.87
2019-05-02T17:22:35.558Z,70.73
2019-05-02T17:27:32.518Z,71.37
2019-05-02T17:32:28.882Z,71.05
2019-05-02T17:37:24.930Z,72.29
2019-05-02T17:42:22.286Z,73.88
2019-05-02T17:47:18.721Z,74.54
2019-05-02T17:52:25.994Z,75.32
2019-05-02T18:02:18.042Z,74.30
2019-05-02T18:07:14.013Z,74.66
2019-05-02T18:12:12.705Z,74.88
2019-05-02T18:17:07.526Z,74.47
2019-05-02T18:22:08.289Z,75.06
2019-05-02T18:27:02.154Z,75.98
2019-05-02T18:31:58.154Z,75.20
2019-05-02T18:37:00.731Z,75.28
2019-05-02T18:41:51.974Z,77.22
2019-05-02T18:46:48.097Z,76.50
2019-05-02T18:51:48.269Z,75.89
2019-05-02T18:56:49.523Z,76.48
2019-05-02T19:01:52.657Z,76.17
2019-05-02T19:06:48.880Z,75.52
2019-05-02T19:11:45.046Z,79.82
2019-05-02T19:16:42.602Z,86.49
2019-05-02T19:21:39.558Z,86.13
2019-05-02T19:26:35.562Z,89.30
2019-05-02T19:31:46.185Z,92.24
2019-05-02T19:36:52.646Z,94.77
2019-05-02T19:42:17.005Z,96.33
2019-05-02T19:47:31.731Z,97.76
2019-05-02T19:53:04.336Z,98.60
2019-05-02T19:58:26.489Z,98.92
2019-05-02T20:04:04.397Z,98.45
2019-05-02T20:09:04.822Z,98.18
2019-05-02T20:14:12.574Z,98.86
2019-05-02T20:19:17.414Z,98.55
2019-05-02T20:24:22.539Z,98.29
2019-05-02T20:29:39.237Z,97.80
2019-05-02T20:35:06.476Z,97.23
2019-05-02T20:41:24.365Z,99.62
2019-05-02T21:04:43.343Z,96.80
2019-05-02T21:10:46.419Z,96.76
2019-05-02T21:15:53.766Z,96.65
2019-05-02T21:20:54.455Z,97.16
2019-05-02T21:25:58.131Z,96.99
2019-05-02T21:30:56.813Z,97.71
2019-05-02T21:35:58.938Z,96.71
2019-05-02T21:40:53.162Z,98.70
2019-05-02T21:45:53.707Z,97.73
2019-05-02T21:50:58.289Z,96.20
2019-05-02T21:56:14.263Z,98.07
2019-05-02T22:01:12.949Z,99.21
2019-05-02T22:06:12.383Z,99.71
2019-05-02T22:11:09.382Z,99.58
2019-05-02T22:16:12.765Z,99.10
2019-05-02T22:21:08.218Z,98.18
2019-05-02T22:26:04.058Z,99.06
2019-05-02T22:31:00.029Z,98.39
2019-05-02T22:35:55.983Z,99.67
2019-05-02T22:40:55.564Z,99.07
2019-05-02T22:45:51.310Z,98.67
2019-05-02T22:50:49.576Z,99.49
2019-05-02T22:55:45.455Z,99.13
2019-05-02T23:00:41.675Z,99.43
2019-05-02T23:05:37.651Z,98.65
2019-05-02T23:10:35.329Z,99.77
2019-05-02T23:15:32.118Z,99.10
2019-05-02T23:20:28.048Z,99.64
2019-05-02T23:25:42.566Z,100.00
2019-05-02T23:30:42.337Z,99.15
2019-05-02T23:35:38.405Z,100.00
2019-05-02T23:40:34.378Z,100.00
2019-05-02T23:45:31.613Z,100.00
2019-05-02T23:50:27.775Z,100.00
2019-05-02T23:55:23.755Z,100.00
